createdAt,value
2019-01-09T00:00:48.472Z,0
2019-01-09T00:01:49.871Z,0
2019-01-09T00:02:51.238Z,0
2019-01-09T00:03:52.598Z,0
2019-01-09T00:04:53.958Z,0
2019-01-09T00:05:55.323Z,0
2019-01-09T00:06:56.689Z,0
2019-01-09T00:07:58.055Z,0
2019-01-09T00:08:59.418Z,0
2019-01-09T00:10:00.782Z,0
2019-01-09T00:11:02.143Z,0
2019-01-09T00:12:03.504Z,0
2019-01-09T00:13:04.870Z,0
2019-01-09T00:14:06.232Z,0
2019-01-09T00:15:07.595Z,0
2019-01-09T00:16:08.959Z,0
2019-01-09T00:17:10.328Z,0
2019-01-09T00:18:11.687Z,0
2019-01-09T00:19:13.052Z,0
2019-01-09T00:20:14.409Z,0
2019-01-09T00:21:15.773Z,0
2019-01-09T00:22:17.137Z,0
2019-01-09T00:23:18.503Z,0
2019-01-09T00:24:19.869Z,0
2019-01-09T00:25:21.230Z,0
2019-01-09T00:26:22.595Z,0
2019-01-09T00:27:23.959Z,0
2019-01-09T00:28:25.324Z,0
2019-01-09T00:29:26.685Z,0
2019-01-09T00:30:28.050Z,0
2019-01-09T00:31:29.417Z,0
2019-01-09T00:32:30.778Z,0
2019-01-09T00:33:32.146Z,0
2019-01-09T00:34:33.504Z,0
2019-01-09T00:35:37.518Z,0
2019-01-09T00:36:36.193Z,0
2019-01-09T00:37:37.560Z,0
2019-01-09T00:38:40.479Z,0
2019-01-09T00:39:40.250Z,0
2019-01-09T00:40:41.613Z,0
2019-01-09T00:41:42.974Z,0
2019-01-09T00:42:44.337Z,0
2019-01-09T00:43:45.711Z,0
2019-01-09T00:44:47.072Z,0
2019-01-09T00:45:48.436Z,0
2019-01-09T00:46:49.798Z,0
2019-01-09T00:47:51.170Z,0
2019-01-09T00:48:52.531Z,0
2019-01-09T00:49:53.890Z,0
2019-01-09T00:50:55.251Z,0
2019-01-09T00:51:56.619Z,0
2019-01-09T00:52:57.988Z,0
2019-01-09T00:53:59.349Z,0
2019-01-09T00:55:00.708Z,0
2019-01-09T00:56:02.073Z,0
2019-01-09T00:57:03.440Z,0
2019-01-09T00:58:04.801Z,0
2019-01-09T00:59:06.164Z,0
2019-01-09T01:00:07.539Z,0
2019-01-09T01:01:08.899Z,0
2019-01-09T01:02:10.268Z,0
2019-01-09T01:03:11.634Z,0
2019-01-09T01:04:12.993Z,0
2019-01-09T01:05:14.360Z,0
2019-01-09T01:06:15.718Z,0
2019-01-09T01:07:17.088Z,0
2019-01-09T01:08:18.459Z,0
2019-01-09T01:09:19.822Z,0
2019-01-09T01:10:21.201Z,0
2019-01-09T01:11:22.563Z,0
2019-01-09T01:12:23.927Z,0
2019-01-09T01:13:25.300Z,0
2019-01-09T01:14:26.678Z,0
2019-01-09T01:15:28.043Z,0
2019-01-09T01:16:29.408Z,0
2019-01-09T01:17:30.773Z,0
2019-01-09T01:18:32.140Z,0
2019-01-09T01:19:33.500Z,0
2019-01-09T01:20:34.880Z,0
2019-01-09T01:21:36.238Z,0
2019-01-09T01:22:37.601Z,0
2019-01-09T01:23:38.962Z,0
2019-01-09T01:24:40.325Z,0
2019-01-09T01:25:41.694Z,0
2019-01-09T01:26:43.055Z,0
2019-01-09T01:27:44.416Z,0
2019-01-09T01:28:45.785Z,0
2019-01-09T01:29:47.146Z,0
2019-01-09T01:30:48.509Z,0
2019-01-09T01:31:49.871Z,0
2019-01-09T01:32:51.233Z,0
2019-01-09T01:33:52.605Z,0
2019-01-09T01:34:53.957Z,0
2019-01-09T01:35:55.327Z,0
2019-01-09T01:36:56.688Z,0
2019-01-09T01:37:58.056Z,0
2019-01-09T01:38:59.414Z,0
2019-01-09T01:40:00.865Z,0
2019-01-09T01:41:02.106Z,0
2019-01-09T01:42:03.469Z,0
2019-01-09T01:43:04.834Z,0
2019-01-09T01:44:06.192Z,0
2019-01-09T01:45:07.558Z,0
2019-01-09T01:46:08.922Z,0
2019-01-09T01:47:10.286Z,0
2019-01-09T01:48:11.644Z,0
2019-01-09T01:49:13.012Z,0
2019-01-09T01:50:14.374Z,0
2019-01-09T01:51:15.740Z,0
2019-01-09T01:52:17.102Z,0
2019-01-09T01:53:18.464Z,0
2019-01-09T01:54:19.842Z,0
2019-01-09T01:55:21.189Z,0
2019-01-09T01:56:22.554Z,0
2019-01-09T01:57:23.920Z,0
2019-01-09T01:58:25.288Z,0
2019-01-09T01:59:26.652Z,0
2019-01-09T02:00:28.017Z,0
2019-01-09T02:01:29.384Z,0
2019-01-09T02:02:30.745Z,0
2019-01-09T02:03:32.106Z,0
2019-01-09T02:04:33.467Z,0
2019-01-09T02:05:34.832Z,0
2019-01-09T02:06:36.195Z,0
2019-01-09T02:07:37.555Z,0
2019-01-09T02:08:38.917Z,0
2019-01-09T02:09:40.279Z,0
2019-01-09T02:10:41.644Z,0
2019-01-09T02:11:43.016Z,0
2019-01-09T02:12:44.375Z,0
2019-01-09T02:13:45.738Z,0
2019-01-09T02:14:47.097Z,0
2019-01-09T02:15:48.459Z,0
2019-01-09T02:16:49.846Z,0
2019-01-09T02:17:51.205Z,0
2019-01-09T02:18:52.568Z,0
2019-01-09T02:19:53.931Z,0
2019-01-09T02:20:55.292Z,0
2019-01-09T02:21:56.656Z,0
2019-01-09T02:22:58.018Z,0
2019-01-09T02:23:59.384Z,0
2019-01-09T02:25:00.853Z,0
2019-01-09T02:26:02.076Z,0
2019-01-09T02:27:03.432Z,0
2019-01-09T02:28:04.798Z,0
2019-01-09T02:29:06.158Z,0
2019-01-09T02:30:07.526Z,0
2019-01-09T02:31:08.885Z,0
2019-01-09T02:32:10.247Z,0
2019-01-09T02:33:11.616Z,0
2019-01-09T02:34:12.978Z,0
2019-01-09T02:35:14.340Z,0
2019-01-09T02:36:15.706Z,0
2019-01-09T02:37:17.066Z,0
2019-01-09T02:38:18.432Z,0
2019-01-09T02:39:19.793Z,0
2019-01-09T02:40:21.159Z,0
2019-01-09T02:41:22.520Z,0
2019-01-09T02:42:23.890Z,0
2019-01-09T02:43:25.219Z,0
2019-01-09T02:44:32.201Z,0
2019-01-09T02:45:27.909Z,0
2019-01-09T02:46:29.278Z,0
2019-01-09T02:47:30.640Z,0
2019-01-09T02:48:32.004Z,0
2019-01-09T02:49:33.367Z,0
2019-01-09T02:50:34.728Z,0
2019-01-09T02:51:36.087Z,0
2019-01-09T02:52:37.451Z,0
2019-01-09T02:53:38.813Z,0
2019-01-09T02:54:40.179Z,0
2019-01-09T02:55:41.542Z,0
2019-01-09T02:56:42.904Z,0
2019-01-09T02:57:44.264Z,0
2019-01-09T02:58:45.626Z,0
2019-01-09T02:59:46.988Z,0
2019-01-09T03:00:48.354Z,0
2019-01-09T03:01:49.719Z,0
2019-01-09T03:02:51.082Z,0
2019-01-09T03:03:52.445Z,0
2019-01-09T03:04:53.805Z,0
2019-01-09T03:05:55.169Z,0
2019-01-09T03:06:56.533Z,0
2019-01-09T03:07:57.903Z,0
2019-01-09T03:08:59.264Z,0
2019-01-09T03:10:00.630Z,0
2019-01-09T03:11:01.988Z,0
2019-01-09T03:12:03.348Z,0
2019-01-09T03:13:04.716Z,0
2019-01-09T03:14:06.077Z,0
2019-01-09T03:15:07.440Z,0
2019-01-09T03:16:08.803Z,0
2019-01-09T03:17:10.169Z,0
2019-01-09T03:18:11.527Z,0
2019-01-09T03:19:12.884Z,0
2019-01-09T03:20:14.245Z,0
2019-01-09T03:21:15.613Z,0
2019-01-09T03:22:16.974Z,0
2019-01-09T03:23:18.340Z,0
2019-01-09T03:24:19.701Z,0
2019-01-09T03:25:21.063Z,0
2019-01-09T03:26:22.425Z,0
2019-01-09T03:27:23.786Z,0
2019-01-09T03:28:25.151Z,0
2019-01-09T03:29:26.515Z,0
2019-01-09T03:30:27.876Z,0
2019-01-09T03:31:29.236Z,0
2019-01-09T03:32:30.605Z,0
2019-01-09T03:33:31.958Z,0
2019-01-09T03:34:33.324Z,0
2019-01-09T03:35:34.683Z,0
2019-01-09T03:36:36.049Z,0
2019-01-09T03:37:37.408Z,0
2019-01-09T03:38:38.769Z,0
2019-01-09T03:39:40.139Z,0
2019-01-09T03:40:41.505Z,0
2019-01-09T03:41:42.866Z,0
2019-01-09T03:42:44.231Z,0
2019-01-09T03:43:45.591Z,0
2019-01-09T03:44:46.956Z,0
2019-01-09T03:45:48.317Z,0
2019-01-09T03:46:49.678Z,0
2019-01-09T03:47:51.040Z,0
2019-01-09T03:48:52.399Z,0
2019-01-09T03:49:53.766Z,0
2019-01-09T03:50:55.131Z,0
2019-01-09T03:51:56.491Z,0
2019-01-09T03:52:57.852Z,0
2019-01-09T03:53:59.212Z,0
2019-01-09T03:55:00.706Z,0
2019-01-09T03:56:01.898Z,0
2019-01-09T03:57:03.262Z,0
2019-01-09T03:58:04.622Z,0
2019-01-09T03:59:05.988Z,0
2019-01-09T04:00:07.344Z,0
2019-01-09T04:01:08.711Z,0
2019-01-09T04:02:10.074Z,0
2019-01-09T04:03:11.435Z,0
2019-01-09T04:04:12.797Z,0
2019-01-09T04:05:14.161Z,0
2019-01-09T04:06:15.526Z,0
2019-01-09T04:07:16.888Z,0
2019-01-09T04:08:18.250Z,0
2019-01-09T04:09:19.614Z,0
2019-01-09T04:10:20.971Z,0
2019-01-09T04:11:22.330Z,0
2019-01-09T04:12:23.693Z,0
2019-01-09T04:13:25.057Z,0
2019-01-09T04:14:26.421Z,0
2019-01-09T04:15:27.842Z,0
2019-01-09T04:16:29.144Z,0
2019-01-09T04:17:30.510Z,0
2019-01-09T04:18:31.878Z,0
2019-01-09T04:19:33.239Z,0
2019-01-09T04:20:34.604Z,0
2019-01-09T04:21:35.963Z,0
2019-01-09T04:22:37.326Z,0
2019-01-09T04:23:38.683Z,0
2019-01-09T04:24:40.053Z,0
2019-01-09T04:25:41.412Z,0
2019-01-09T04:26:42.774Z,0
2019-01-09T04:27:44.136Z,0
2019-01-09T04:28:45.497Z,0
2019-01-09T04:29:46.859Z,0
2019-01-09T04:30:48.224Z,0
2019-01-09T04:31:49.584Z,0
2019-01-09T04:32:50.948Z,0
2019-01-09T04:33:52.313Z,0
2019-01-09T04:34:53.679Z,0
2019-01-09T04:35:55.041Z,0
2019-01-09T04:36:56.401Z,0
2019-01-09T04:37:57.762Z,0
2019-01-09T04:38:59.122Z,0
2019-01-09T04:40:00.485Z,0
2019-01-09T04:41:01.850Z,0
2019-01-09T04:42:03.211Z,0
2019-01-09T04:43:04.570Z,0
2019-01-09T04:44:05.937Z,0
2019-01-09T04:45:07.297Z,0
2019-01-09T04:46:08.661Z,0
2019-01-09T04:47:10.026Z,0
2019-01-09T04:48:11.390Z,0
2019-01-09T04:49:12.754Z,0
2019-01-09T04:50:14.114Z,0
2019-01-09T04:51:15.478Z,0
2019-01-09T04:52:16.843Z,0
2019-01-09T04:53:18.202Z,0
2019-01-09T04:54:19.565Z,0
2019-01-09T04:55:20.927Z,0
2019-01-09T04:56:22.293Z,0
2019-01-09T04:57:23.652Z,0
2019-01-09T04:58:25.014Z,0
2019-01-09T04:59:26.380Z,0
2019-01-09T05:00:27.742Z,0
2019-01-09T05:01:29.102Z,0
2019-01-09T05:02:30.469Z,0
2019-01-09T05:03:31.843Z,0
2019-01-09T05:04:33.206Z,0
2019-01-09T05:05:34.568Z,0
2019-01-09T05:06:35.929Z,0
2019-01-09T05:07:37.294Z,0
2019-01-09T05:08:38.656Z,0
2019-01-09T05:09:40.018Z,0
2019-01-09T05:10:41.345Z,0
2019-01-09T05:11:42.704Z,0
2019-01-09T05:12:44.064Z,0
2019-01-09T05:13:45.427Z,0
2019-01-09T05:14:46.786Z,0
2019-01-09T05:15:48.143Z,0
2019-01-09T05:16:49.515Z,0
2019-01-09T05:17:50.877Z,0
2019-01-09T05:18:52.239Z,0
2019-01-09T05:19:53.598Z,0
2019-01-09T05:20:54.962Z,0
2019-01-09T05:21:56.326Z,0
2019-01-09T05:22:57.685Z,0
2019-01-09T05:23:59.047Z,0
2019-01-09T05:25:00.404Z,0
2019-01-09T05:26:01.778Z,0
2019-01-09T05:27:03.135Z,0
2019-01-09T05:28:04.499Z,0
2019-01-09T05:29:05.858Z,0
2019-01-09T05:30:07.219Z,0
2019-01-09T05:31:08.582Z,0
2019-01-09T05:32:09.942Z,0
2019-01-09T05:33:11.308Z,0
2019-01-09T05:34:12.670Z,0
2019-01-09T05:35:14.027Z,0
2019-01-09T05:36:15.390Z,0
2019-01-09T05:37:16.752Z,0
2019-01-09T05:38:18.111Z,0
2019-01-09T05:39:19.480Z,0
2019-01-09T05:40:20.836Z,0
2019-01-09T05:41:22.199Z,0
2019-01-09T05:42:23.561Z,0
2019-01-09T05:43:24.928Z,0
2019-01-09T05:44:26.289Z,0
2019-01-09T05:45:27.646Z,0
2019-01-09T05:46:29.010Z,0
2019-01-09T05:47:30.368Z,0
2019-01-09T05:48:31.733Z,0
2019-01-09T05:49:33.091Z,0
2019-01-09T05:50:34.470Z,0
2019-01-09T05:51:35.833Z,0
2019-01-09T05:52:37.195Z,0
2019-01-09T05:53:38.560Z,0
2019-01-09T05:54:41.497Z,0
2019-01-09T05:55:41.246Z,0
2019-01-09T05:56:42.625Z,0
2019-01-09T05:57:43.989Z,0
2019-01-09T05:58:45.357Z,0
2019-01-09T05:59:46.712Z,0
2019-01-09T06:00:48.076Z,0
2019-01-09T06:01:49.436Z,0
2019-01-09T06:02:50.805Z,0
2019-01-09T06:03:52.171Z,0
2019-01-09T06:04:53.535Z,0
2019-01-09T06:05:54.902Z,0
2019-01-09T06:06:56.267Z,0
2019-01-09T06:07:57.632Z,0
2019-01-09T06:08:58.993Z,0
2019-01-09T06:10:00.352Z,0
2019-01-09T06:11:01.719Z,0
2019-01-09T06:12:03.081Z,0
2019-01-09T06:13:04.443Z,0
2019-01-09T06:14:05.815Z,0
2019-01-09T06:15:07.175Z,0
2019-01-09T06:16:08.534Z,0
2019-01-09T06:17:09.897Z,0
2019-01-09T06:18:11.255Z,0
2019-01-09T06:19:12.626Z,0
2019-01-09T06:20:13.980Z,0
2019-01-09T06:21:15.344Z,0
2019-01-09T06:22:16.708Z,0
2019-01-09T06:23:18.070Z,0
2019-01-09T06:24:19.429Z,0
2019-01-09T06:25:20.792Z,0
2019-01-09T06:26:22.156Z,0
2019-01-09T06:27:23.515Z,0
2019-01-09T06:28:24.888Z,0
2019-01-09T06:29:26.253Z,0
2019-01-09T06:30:27.609Z,0
2019-01-09T06:31:28.971Z,0
2019-01-09T06:32:30.331Z,0
2019-01-09T06:33:31.694Z,0
2019-01-09T06:34:33.076Z,0
2019-01-09T06:35:34.444Z,0
2019-01-09T06:36:35.804Z,0
2019-01-09T06:37:37.168Z,0
2019-01-09T06:38:38.530Z,0
2019-01-09T06:39:39.896Z,0
2019-01-09T06:40:41.250Z,0
2019-01-09T06:41:42.612Z,0
2019-01-09T06:42:43.978Z,0
2019-01-09T06:43:45.339Z,0
2019-01-09T06:44:46.701Z,0
2019-01-09T06:45:48.066Z,0
2019-01-09T06:46:49.418Z,0
2019-01-09T06:47:50.777Z,0
2019-01-09T06:48:52.195Z,0
2019-01-09T06:49:53.504Z,0
2019-01-09T06:50:54.867Z,0
2019-01-09T06:51:56.224Z,0
2019-01-09T06:52:57.585Z,0
2019-01-09T06:53:58.952Z,0
2019-01-09T06:55:00.317Z,0
2019-01-09T06:56:01.697Z,0
2019-01-09T06:57:03.035Z,0
2019-01-09T06:58:04.395Z,0
2019-01-09T06:59:05.759Z,0
2019-01-09T07:00:07.116Z,0
2019-01-09T07:01:08.481Z,4
2019-01-09T07:02:09.845Z,4
2019-01-09T07:03:11.208Z,4
2019-01-09T07:04:12.569Z,4
2019-01-09T07:05:13.934Z,4
2019-01-09T07:06:15.298Z,4
2019-01-09T07:07:16.658Z,4
2019-01-09T07:08:18.020Z,4
2019-01-09T07:09:19.382Z,4
2019-01-09T07:10:20.745Z,8
2019-01-09T07:11:22.110Z,12
2019-01-09T07:12:23.478Z,12
2019-01-09T07:13:24.847Z,12
2019-01-09T07:14:26.202Z,16
2019-01-09T07:15:27.564Z,20
2019-01-09T07:16:28.927Z,24
2019-01-09T07:17:30.293Z,28
2019-01-09T07:18:31.745Z,36
2019-01-09T07:19:32.982Z,40
2019-01-09T07:20:34.347Z,48
2019-01-09T07:21:35.709Z,52
2019-01-09T07:22:37.074Z,60
2019-01-09T07:23:38.437Z,64
2019-01-09T07:24:39.797Z,68
2019-01-09T07:25:41.171Z,80
2019-01-09T07:26:42.533Z,88
2019-01-09T07:27:43.893Z,96
2019-01-09T07:28:45.260Z,100
2019-01-09T07:29:46.618Z,96
2019-01-09T07:30:47.986Z,100
2019-01-09T07:31:49.352Z,96
2019-01-09T07:32:50.730Z,96
2019-01-09T07:33:52.095Z,96
2019-01-09T07:34:53.458Z,104
2019-01-09T07:35:54.823Z,100
2019-01-09T07:36:56.184Z,112
2019-01-09T07:37:57.550Z,128
2019-01-09T07:38:58.914Z,168
2019-01-09T07:40:00.295Z,188
2019-01-09T07:41:01.650Z,196
2019-01-09T07:42:03.010Z,220
2019-01-09T07:43:04.375Z,248
2019-01-09T07:44:05.738Z,292
2019-01-09T07:45:07.104Z,328
2019-01-09T07:46:08.468Z,352
2019-01-09T07:47:09.833Z,380
2019-01-09T07:48:11.202Z,416
2019-01-09T07:49:12.569Z,492
2019-01-09T07:50:13.929Z,512
2019-01-09T07:51:15.295Z,528
2019-01-09T07:52:16.660Z,512
2019-01-09T07:53:18.028Z,484
2019-01-09T07:54:19.393Z,548
2019-01-09T07:55:20.761Z,588
2019-01-09T07:56:22.126Z,648
2019-01-09T07:57:23.487Z,652
2019-01-09T07:58:24.853Z,672
2019-01-09T07:59:26.219Z,748
2019-01-09T08:00:27.584Z,808
2019-01-09T08:01:28.951Z,784
2019-01-09T08:02:30.318Z,820
2019-01-09T08:03:31.683Z,756
2019-01-09T08:04:33.047Z,768
2019-01-09T08:05:34.410Z,768
2019-01-09T08:06:35.781Z,752
2019-01-09T08:07:37.147Z,720
2019-01-09T08:08:38.510Z,732
2019-01-09T08:09:39.886Z,704
2019-01-09T08:10:41.243Z,724
2019-01-09T08:11:42.611Z,776
2019-01-09T08:12:43.977Z,1008
2019-01-09T08:13:45.340Z,1012
2019-01-09T08:14:46.705Z,948
2019-01-09T08:15:48.074Z,572
2019-01-09T08:16:49.441Z,576
2019-01-09T08:17:50.805Z,660
2019-01-09T08:18:52.175Z,676
2019-01-09T08:19:53.535Z,648
2019-01-09T08:20:54.902Z,636
2019-01-09T08:21:56.269Z,764
2019-01-09T08:22:57.758Z,928
2019-01-09T08:23:59.126Z,1032
2019-01-09T08:25:00.492Z,1056
2019-01-09T08:26:01.857Z,1120
2019-01-09T08:27:03.223Z,1176
2019-01-09T08:28:04.592Z,1252
2019-01-09T08:29:05.965Z,1452
2019-01-09T08:30:07.326Z,1624
2019-01-09T08:31:08.698Z,1828
2019-01-09T08:32:10.061Z,2144
2019-01-09T08:33:11.429Z,1744
2019-01-09T08:34:12.794Z,2224
2019-01-09T08:35:14.162Z,1920
2019-01-09T08:36:15.529Z,1540
2019-01-09T08:37:16.895Z,1500
2019-01-09T08:38:18.263Z,1624
2019-01-09T08:39:19.634Z,1640
2019-01-09T08:40:21.000Z,1588
2019-01-09T08:41:22.365Z,1740
2019-01-09T08:42:23.736Z,1816
2019-01-09T08:43:25.106Z,1832
2019-01-09T08:44:26.470Z,1828
2019-01-09T08:45:27.840Z,1860
2019-01-09T08:46:29.213Z,1936
2019-01-09T08:47:30.581Z,2000
2019-01-09T08:48:31.949Z,2092
2019-01-09T08:49:33.319Z,2264
2019-01-09T08:50:34.700Z,2800
2019-01-09T08:51:36.080Z,8156
2019-01-09T08:52:37.460Z,8100
2019-01-09T08:53:38.823Z,7148
2019-01-09T08:54:40.183Z,5876
2019-01-09T08:55:41.570Z,3208
2019-01-09T08:56:42.962Z,3236
2019-01-09T08:57:44.335Z,3564
2019-01-09T08:58:45.704Z,3480
2019-01-09T08:59:47.067Z,3372
2019-01-09T09:00:48.448Z,2868
2019-01-09T09:01:49.862Z,3256
2019-01-09T09:02:51.247Z,3920
2019-01-09T09:03:52.614Z,3460
2019-01-09T09:04:53.994Z,2952
2019-01-09T09:05:55.360Z,3200
2019-01-09T09:06:56.751Z,2676
2019-01-09T09:07:58.151Z,2520
2019-01-09T09:08:59.577Z,2628
2019-01-09T09:10:00.972Z,3028
2019-01-09T09:11:02.370Z,4588
2019-01-09T09:12:03.795Z,5964
2019-01-09T09:13:05.275Z,6852
2019-01-09T09:14:08.001Z,6480
2019-01-09T09:15:07.904Z,6948
2019-01-09T09:16:09.317Z,7332
2019-01-09T09:17:10.717Z,5904
2019-01-09T09:18:12.094Z,5816
2019-01-09T09:19:13.509Z,6968
2019-01-09T09:20:14.892Z,7348
2019-01-09T09:21:16.259Z,6276
2019-01-09T09:22:17.636Z,6112
2019-01-09T09:23:19.007Z,6944
2019-01-09T09:24:20.454Z,5740
2019-01-09T09:25:21.837Z,4800
2019-01-09T09:26:23.207Z,4452
2019-01-09T09:27:24.577Z,4264
2019-01-09T09:28:25.950Z,4584
2019-01-09T09:29:27.326Z,5608
2019-01-09T09:30:28.709Z,6752
2019-01-09T09:31:30.081Z,7192
2019-01-09T09:32:31.449Z,9032
2019-01-09T09:33:32.812Z,10156
2019-01-09T09:34:34.192Z,10400
2019-01-09T09:35:35.580Z,10596
2019-01-09T09:36:36.963Z,10656
2019-01-09T09:37:38.357Z,10816
2019-01-09T09:38:39.741Z,10556
2019-01-09T09:39:41.118Z,7964
2019-01-09T09:40:42.516Z,5132
2019-01-09T09:41:43.900Z,7236
2019-01-09T09:42:45.280Z,9812
2019-01-09T09:43:46.661Z,9636
2019-01-09T09:44:48.043Z,8868
2019-01-09T09:45:49.432Z,9656
2019-01-09T09:46:50.818Z,9856
2019-01-09T09:47:52.194Z,9984
2019-01-09T09:48:53.565Z,10064
2019-01-09T09:49:54.940Z,10216
2019-01-09T09:50:56.314Z,10432
2019-01-09T09:51:57.684Z,10432
2019-01-09T09:52:59.055Z,10972
2019-01-09T09:54:00.432Z,11072
2019-01-09T09:55:01.803Z,10744
2019-01-09T09:56:03.174Z,10576
2019-01-09T09:57:04.553Z,10508
2019-01-09T09:58:06.112Z,10704
2019-01-09T09:59:07.257Z,10888
2019-01-09T10:00:08.632Z,10852
2019-01-09T10:01:10.009Z,11088
2019-01-09T10:02:11.387Z,11380
2019-01-09T10:03:12.757Z,11836
2019-01-09T10:04:14.132Z,12192
2019-01-09T10:05:15.504Z,11460
2019-01-09T10:06:16.879Z,11372
2019-01-09T10:07:18.244Z,11488
2019-01-09T10:08:19.621Z,5260
2019-01-09T10:09:20.986Z,9232
2019-01-09T10:10:22.367Z,12284
2019-01-09T10:11:23.742Z,11468
2019-01-09T10:12:25.113Z,7112
2019-01-09T10:13:26.483Z,5988
2019-01-09T10:14:27.826Z,11292
2019-01-09T10:15:29.198Z,5384
2019-01-09T10:16:30.571Z,11528
2019-01-09T10:17:31.944Z,6644
2019-01-09T10:18:33.314Z,4592
2019-01-09T10:19:34.684Z,3856
2019-01-09T10:20:36.050Z,3844
2019-01-09T10:21:37.424Z,11748
2019-01-09T10:22:38.797Z,11824
2019-01-09T10:23:40.169Z,10908
2019-01-09T10:24:41.541Z,5032
2019-01-09T10:25:42.915Z,4944
2019-01-09T10:26:44.287Z,10876
2019-01-09T10:27:45.662Z,11636
2019-01-09T10:28:47.030Z,9432
2019-01-09T10:29:48.403Z,10524
2019-01-09T10:30:49.777Z,10080
2019-01-09T10:31:51.152Z,6008
2019-01-09T10:32:52.526Z,6208
2019-01-09T10:33:53.895Z,7960
2019-01-09T10:34:55.266Z,7592
2019-01-09T10:35:56.634Z,6032
2019-01-09T10:36:58.006Z,5340
2019-01-09T10:37:59.381Z,4752
2019-01-09T10:39:00.752Z,4564
2019-01-09T10:40:02.130Z,4312
2019-01-09T10:41:03.492Z,7064
2019-01-09T10:42:04.861Z,8784
2019-01-09T10:43:06.230Z,8880
2019-01-09T10:44:07.600Z,5852
2019-01-09T10:45:08.970Z,6004
2019-01-09T10:46:10.341Z,7360
2019-01-09T10:47:11.710Z,6168
2019-01-09T10:48:13.078Z,5212
2019-01-09T10:49:14.440Z,4944
2019-01-09T10:50:15.819Z,11448
2019-01-09T10:51:17.190Z,14272
2019-01-09T10:52:18.559Z,17408
2019-01-09T10:53:19.936Z,9032
2019-01-09T10:54:21.306Z,7344
2019-01-09T10:55:22.673Z,6812
2019-01-09T10:56:24.046Z,5492
2019-01-09T10:57:25.411Z,6644
2019-01-09T10:58:26.781Z,6888
2019-01-09T10:59:28.149Z,7304
2019-01-09T11:00:29.524Z,8880
2019-01-09T11:01:30.893Z,6372
2019-01-09T11:02:32.259Z,6812
2019-01-09T11:03:33.626Z,7776
2019-01-09T11:04:35.002Z,5404
2019-01-09T11:05:36.374Z,5092
2019-01-09T11:06:37.745Z,6100
2019-01-09T11:07:39.112Z,6104
2019-01-09T11:08:46.937Z,5744
2019-01-09T11:09:41.818Z,15264
2019-01-09T11:10:43.189Z,12196
2019-01-09T11:11:44.559Z,11404
2019-01-09T11:12:45.928Z,13024
2019-01-09T11:13:47.300Z,6136
2019-01-09T11:14:48.669Z,7268
2019-01-09T11:15:50.035Z,8368
2019-01-09T11:16:51.415Z,8600
2019-01-09T11:17:52.772Z,6524
2019-01-09T11:18:54.143Z,6452
2019-01-09T11:19:55.512Z,8352
2019-01-09T11:20:56.884Z,8060
2019-01-09T11:21:58.255Z,7808
2019-01-09T11:22:59.647Z,6372
2019-01-09T11:24:00.997Z,6552
2019-01-09T11:25:02.364Z,6916
2019-01-09T11:26:03.728Z,7128
2019-01-09T11:27:05.105Z,6772
2019-01-09T11:28:06.469Z,7184
2019-01-09T11:29:07.954Z,5952
2019-01-09T11:30:09.170Z,5604
2019-01-09T11:31:10.545Z,8564
2019-01-09T11:32:11.909Z,9908
2019-01-09T11:33:13.280Z,16576
2019-01-09T11:34:14.657Z,15872
2019-01-09T11:35:16.034Z,8008
2019-01-09T11:36:17.400Z,5168
2019-01-09T11:37:18.766Z,4996
2019-01-09T11:38:20.135Z,4712
2019-01-09T11:39:21.503Z,5940
2019-01-09T11:40:22.870Z,8608
2019-01-09T11:41:24.242Z,11980
2019-01-09T11:42:25.614Z,15392
2019-01-09T11:43:26.983Z,14560
2019-01-09T11:44:28.357Z,5524
2019-01-09T11:45:29.726Z,6276
2019-01-09T11:46:31.093Z,11044
2019-01-09T11:47:32.461Z,6292
2019-01-09T11:48:33.834Z,8224
2019-01-09T11:49:35.208Z,13952
2019-01-09T11:50:36.582Z,4512
2019-01-09T11:51:37.976Z,5716
2019-01-09T11:52:39.323Z,7100
2019-01-09T11:53:40.692Z,5256
2019-01-09T11:54:42.059Z,5396
2019-01-09T11:55:43.432Z,5304
2019-01-09T11:56:44.801Z,14752
2019-01-09T11:57:46.170Z,7136
2019-01-09T11:58:47.541Z,13576
2019-01-09T11:59:48.911Z,15648
2019-01-09T12:00:50.282Z,15840
2019-01-09T12:01:51.651Z,17344
2019-01-09T12:02:53.022Z,13616
2019-01-09T12:03:54.393Z,9548
2019-01-09T12:04:55.763Z,10296
2019-01-09T12:05:57.136Z,7376
2019-01-09T12:06:58.511Z,5508
2019-01-09T12:07:59.879Z,4324
2019-01-09T12:09:04.612Z,3672
2019-01-09T12:10:02.608Z,4020
2019-01-09T12:11:03.999Z,4336
2019-01-09T12:12:05.287Z,3988
2019-01-09T12:13:06.658Z,4108
2019-01-09T12:14:08.028Z,6896
2019-01-09T12:15:09.399Z,6332
2019-01-09T12:16:10.762Z,6520
2019-01-09T12:17:12.134Z,6304
2019-01-09T12:18:13.503Z,5684
2019-01-09T12:19:14.876Z,5952
2019-01-09T12:20:16.249Z,5900
2019-01-09T12:21:17.637Z,6988
2019-01-09T12:22:18.985Z,8692
2019-01-09T12:23:20.354Z,10192
2019-01-09T12:24:21.725Z,8380
2019-01-09T12:25:23.096Z,7108
2019-01-09T12:26:24.466Z,8920
2019-01-09T12:27:25.837Z,7804
2019-01-09T12:28:27.202Z,5796
2019-01-09T12:29:28.569Z,6836
2019-01-09T12:30:29.938Z,6360
2019-01-09T12:31:31.307Z,7220
2019-01-09T12:32:32.680Z,7112
2019-01-09T12:33:34.050Z,6824
2019-01-09T12:34:35.421Z,10624
2019-01-09T12:35:36.791Z,13952
2019-01-09T12:36:38.165Z,13104
2019-01-09T12:37:39.532Z,8056
2019-01-09T12:38:40.903Z,13360
2019-01-09T12:39:42.271Z,13408
2019-01-09T12:40:43.641Z,5108
2019-01-09T12:41:45.013Z,4264
2019-01-09T12:42:46.389Z,6736
2019-01-09T12:43:47.749Z,5628
2019-01-09T12:44:49.115Z,3424
2019-01-09T12:45:50.485Z,2352
2019-01-09T12:46:51.856Z,1900
2019-01-09T12:47:53.223Z,1632
2019-01-09T12:48:54.593Z,2000
2019-01-09T12:49:55.963Z,2188
2019-01-09T12:50:57.332Z,1640
2019-01-09T12:51:58.702Z,1292
2019-01-09T12:53:00.071Z,1208
2019-01-09T12:54:01.438Z,1212
2019-01-09T12:55:02.807Z,1444
2019-01-09T12:56:04.179Z,1348
2019-01-09T12:57:05.549Z,1440
2019-01-09T12:58:06.915Z,1388
2019-01-09T12:59:08.282Z,1420
2019-01-09T13:00:09.649Z,1668
2019-01-09T13:01:11.022Z,1908
2019-01-09T13:02:12.392Z,1772
2019-01-09T13:03:13.763Z,1840
2019-01-09T13:04:15.124Z,1964
2019-01-09T13:05:16.491Z,1872
2019-01-09T13:06:17.856Z,1900
2019-01-09T13:07:19.226Z,1956
2019-01-09T13:08:20.594Z,2100
2019-01-09T13:09:22.212Z,2136
2019-01-09T13:10:23.293Z,1960
2019-01-09T13:11:24.658Z,1792
2019-01-09T13:12:26.027Z,1868
2019-01-09T13:13:27.392Z,1860
2019-01-09T13:14:28.758Z,1852
2019-01-09T13:15:30.126Z,1652
2019-01-09T13:16:31.493Z,1720
2019-01-09T13:17:32.861Z,1552
2019-01-09T13:18:34.227Z,1536
2019-01-09T13:19:35.592Z,1692
2019-01-09T13:20:36.962Z,2252
2019-01-09T13:21:38.334Z,2680
2019-01-09T13:22:39.700Z,3320
2019-01-09T13:23:41.067Z,3360
2019-01-09T13:24:42.441Z,3296
2019-01-09T13:25:43.806Z,3288
2019-01-09T13:26:45.172Z,4032
2019-01-09T13:27:46.540Z,4448
2019-01-09T13:28:47.908Z,4520
2019-01-09T13:29:49.275Z,5476
2019-01-09T13:30:50.646Z,8748
2019-01-09T13:31:52.015Z,8060
2019-01-09T13:32:53.380Z,5200
2019-01-09T13:33:54.748Z,5460
2019-01-09T13:34:56.117Z,6164
2019-01-09T13:35:57.485Z,7168
2019-01-09T13:36:58.857Z,9912
2019-01-09T13:38:00.231Z,9576
2019-01-09T13:39:01.599Z,10180
2019-01-09T13:40:02.967Z,7440
2019-01-09T13:41:04.335Z,6668
2019-01-09T13:42:05.702Z,6576
2019-01-09T13:43:07.074Z,4588
2019-01-09T13:44:08.442Z,3820
2019-01-09T13:45:09.812Z,3260
2019-01-09T13:46:11.182Z,2744
2019-01-09T13:47:12.550Z,3468
2019-01-09T13:48:13.918Z,3688
2019-01-09T13:49:15.289Z,2308
2019-01-09T13:50:16.666Z,2600
2019-01-09T13:51:18.038Z,3816
2019-01-09T13:52:19.407Z,2804
2019-01-09T13:53:20.774Z,2092
2019-01-09T13:54:22.142Z,3084
2019-01-09T13:55:23.516Z,3088
2019-01-09T13:56:24.878Z,3232
2019-01-09T13:57:26.246Z,3252
2019-01-09T13:58:27.617Z,3928
2019-01-09T13:59:28.984Z,3156
2019-01-09T14:00:30.418Z,3780
2019-01-09T14:01:31.717Z,4124
2019-01-09T14:02:33.086Z,3736
2019-01-09T14:03:34.456Z,4348
2019-01-09T14:04:35.823Z,4020
2019-01-09T14:05:37.191Z,3864
2019-01-09T14:06:38.560Z,3828
2019-01-09T14:07:39.934Z,5772
2019-01-09T14:08:41.300Z,6012
2019-01-09T14:09:42.671Z,7156
2019-01-09T14:10:44.104Z,5492
2019-01-09T14:11:45.406Z,3384
2019-01-09T14:12:46.771Z,3676
2019-01-09T14:13:48.143Z,3364
2019-01-09T14:14:49.535Z,2984
2019-01-09T14:15:50.876Z,2444
2019-01-09T14:16:52.246Z,2360
2019-01-09T14:17:53.624Z,3060
2019-01-09T14:18:55.307Z,3936
2019-01-09T14:19:56.311Z,3176
2019-01-09T14:20:57.682Z,2492